Terminal Aerodrome Forecast
Issued by NWS Albany, NY

Home | Current Version | Previous Version | Text Only | Print | Product List | Glossary On
Versions: 1 2 3 4 5 6 7 8 9 10 11 12 13 14 15 16 17 18 19
000
FTUS41 KALY 040521
TAFALB
TAF
KALB 040521Z 0406/0506 00000KT P6SM SCT200 OVC250
     FM041000 17003KT P6SM VCSH SCT060 OVC120
     FM041300 17004KT P6SM -SHRA BKN060 OVC090
     FM041500 18005KT 5SM -SHRA BR BKN035 OVC050
     FM042100 18005KT P6SM VCSH BKN035 OVC050
     FM050200 17003KT P6SM SCT035 SCT050=

USA.gov is the U.S. government's official web portal to all federal, state and local government web resources and services.